Flight Track Log - Related Links

Times and Time Zones

All times are in EST time to prevent confusion due to time zone crossing. See the EJA929 flight status page for this flight to view local times or setup timezone preferences in your user account.

Time Position Orientation Groundspeed Altitude Reporting Facility
EST Latitude Longitude Course Direction KTS MPH feet Rate Location/Type
Wed 11:41:55 AM 38.5342 -106.8258 94° East 270 311 11,900  Level Denver Center
Wed 11:42:57 AM 38.5244 -106.7150 96° East 298 343 15,700 3,339 Climbing Denver Center
Wed 11:43:59 AM 38.4969 -106.5572 103° East 369 425 18,800 2,710 Climbing Denver Center
Wed 11:44:00 AM 38.3302 -106.1951 96° East  Level Estimated
Wed 11:45:00 AM 38.2889 -106.0480 98° East  Level Estimated
Wed 11:45:01 AM 38.4606 -106.4114 108° East 429 494 21,300  Level Denver Center
Wed 11:46:00 AM 38.2474 -105.9011 98° East  Level Estimated
Wed 11:46:03 AM 38.4231 -106.2539 107° East 459 528 23,800  Level Denver Center
Wed 11:47:05 AM 38.3833 -106.0856 107° East 471 542 26,200 2,274 Climbing Denver Center
Wed 11:48:07 AM 38.3397 -105.8989 107° East 489 563 28,500 2,032 Climbing Denver Center
Wed 11:49:09 AM 38.3006 -105.7331 107° East 505 581 30,400 2,032 Climbing Denver Center
Wed 11:50:11 AM 38.2597 -105.5644 107° East 518 596 32,700 1,248 Climbing Denver Center
Wed 11:51:14 AM 38.2089 -105.3575 107° East 547 629 33,000 432 Climbing Denver Center
Wed 11:52:16 AM 38.1642 -105.1703 107° East 574 661 33,600 968 Climbing Denver Center
Wed 11:53:18 AM 38.1114 -104.9567 107° East 567 652 35,000 1,210 Climbing Denver Center
Wed 11:54:20 AM 38.0667 -104.7742 107° East 566 651 36,100 1,548 Climbing Denver Center
Wed 11:55:22 AM 38.0147 -104.5647 107° East 559 643 38,200 1,403 Climbing Denver Center
Wed 11:56:24 AM 37.9694 -104.3867 108° East 554 638 39,000 387 Climbing Denver Center
Wed 11:57:26 AM 37.9136 -104.1714 108° East 567 652 39,000  Level Denver Center
Wed 11:58:28 AM 37.8656 -103.9836 108° East 578 665 39,000  Level Denver Center
Wed 11:59:30 AM 37.8181 -103.7975 108° East 574 661 39,000 97 Level Denver Center
Wed 12:00:32 PM 37.7614 -103.5800 108° East 576 663 39,200 581 Climbing Denver Center
Wed 12:01:34 PM 37.7125 -103.3975 109° East 572 658 40,200 725 Climbing Denver Center
Wed 12:03:01 PM 37.6419 -103.1286 108° East 565 650 41,000 322 Climbing Denver Center
Wed 12:04:03 PM 37.5864 -102.9142 108° East 573 659 41,000  Level Denver Center
Wed 12:05:05 PM 37.5361 -102.7333 109° East 570 656 41,000  Level Denver Center
Wed 12:06:07 PM 37.4794 -102.5233 109° East 567 652 41,000  Level Denver Center
Wed 12:07:09 PM 37.4261 -102.3278 109° East 568 654 41,000  Level Denver Center
Wed 12:07:52 PM 37.3897 -102.1956 109° East 565 650 41,000  Level Albuquerque Center
Wed 12:08:58 PM 37.3361 -102.0028 109° East 564 649 41,000  Level Albuquerque Center
Wed 12:09:56 PM 37.2883 -101.8269 109° East 561 646 41,000  Level Albuquerque Center
Wed 12:11:19 PM 37.2128 -101.5622 110° East 560 644 41,000  Level Kansas City Center
Wed 12:12:22 PM 37.1436 -101.3986 118° Southeast 561 646 41,000  Level Kansas City Center
Wed 12:13:24 PM 37.0322 -101.2450 132° Southeast 542 624 41,000 -488 Level Kansas City Center
Wed 12:14:25 PM 36.9350 -101.1108 132° Southeast 543 625 40,000 -1,426 Descending Kansas City Center
Wed 12:15:26 PM 36.8222 -100.9542 132° Southeast 545 627 38,100 -1,790 Descending Kansas City Center
Wed 12:16:29 PM 36.7258 -100.8222 132° Southeast 542 624 36,300 -1,465 Descending Kansas City Center
Wed 12:17:33 PM 36.6119 -100.6656 132° Southeast 544 626 35,000 -629 Descending Kansas City Center
Wed 12:18:33 PM 36.5122 -100.5289 132° Southeast 554 638 35,000 -645 Level Kansas City Center
Wed 12:19:34 PM 36.3950 -100.3692 132° Southeast 560 644 33,700 -1,248 Descending Kansas City Center
Wed 12:20:38 PM 36.2953 -100.2356 133° Southeast 555 639 32,400 -816 Descending Kansas City Center
Wed 12:21:39 PM 36.1861 -100.0881 132° Southeast 563 648 32,000 -194 Descending Kansas City Center
Wed 12:22:42 PM 36.0767 -99.9419 133° Southeast 572 658 32,000  Level Kansas City Center
Wed 12:23:43 PM 35.9678 -99.7975 133° Southeast 574 661 32,000  Level Kansas City Center
Wed 12:24:44 PM 35.8608 -99.6550 133° Southeast 573 659 32,000  Level Kansas City Center
Wed 12:25:48 PM 35.7381 -99.4739 130° Southeast 585 673 32,000 -672 Level Kansas City Center
Wed 12:26:49 PM 35.7025 -99.2764 102° East 599 689 30,600 -2,256 Descending Kansas City Center
Wed 12:27:53 PM 35.6858 -99.0792 96° East 588 677 27,300 -3,120 Descending Kansas City Center
Wed 12:28:54 PM 35.6669 -98.8911 97° East 567 652 24,100 -2,902 Descending Kansas City Center
Wed 12:29:55 PM 35.6122 -98.7264 112° Southeast 533 613 21,400 -2,516 Descending Kansas City Center
Wed 12:30:27 PM 35.5789 -98.6333 114° Southeast 513 590 20,200 -2,021 Descending Fort Worth Center
Wed 12:31:30 PM 35.5694 -98.4789 94° East 479 551 18,200 -2,516 Descending Fort Worth Center
Wed 12:32:00 PM 35.5878 -98.3844 77° East 428 493 16,300 -3,444 Descending Fort Worth Center
Wed 12:32:24 PM 35.5989 -98.3311 76° East 421 484 15,100 -2,250 Descending Fort Worth Center
Wed 12:32:32 PM 35.6014 -98.3344 313° West 445 512 15,100 -3,246 Level Fort Worth Center
Wed 12:33:25 PM 35.6264 -98.1978 77° East 397 457 11,800 -3,677 Descending Fort Worth Center
Wed 12:33:34 PM 35.6328 -98.1750 71° East 412 474 11,300 -1,444 Descending Fort Worth Center
Wed 12:34:19 PM 35.6522 -98.0878 75° East 357 411 10,500 -774 Descending Fort Worth Center
Wed 12:34:36 PM 35.6561 -98.0819 51° Northeast 387 445 10,500 -1,672 Level Fort Worth Center
Wed 12:35:20 PM 35.6783 -97.9828 75° East 306 352 8,800 -2,226 Descending Fort Worth Center
Wed 12:35:38 PM 35.6875 -97.9508 71° East 323 372 8,200 -1,964 Descending Fort Worth Center
Wed 12:36:15 PM 35.7036 -97.8883 72° East 312 359 7,000 -1,548 Descending Fort Worth Center
Wed 12:36:40 PM 35.7075 -97.8475 83° East 313 360 6,600 -1,636 Descending Fort Worth Center
Wed 12:37:21 PM 35.7147 -97.7806 82° East 285 328 5,200 -1,742 Descending Fort Worth Center
Wed 12:37:42 PM 35.7192 -97.7458 81° East 282 325 4,800 -1,377 Descending Fort Worth Center
Wed 12:38:22 PM 35.7267 -97.7008 78° East 219 252 3,800 -1,645 Descending Fort Worth Center
Wed 12:38:44 PM 35.7150 -97.6811 126° Southeast 214 246 3,100 -787 Descending Fort Worth Center
Wed 12:39:23 PM 35.6906 -97.6606 146° Southeast 166 191 3,000 -97 Descending Fort Worth Center
Wed 12:39:46 PM 35.6744 -97.6475 147° Southeast 179 206 3,000  Level Fort Worth Center
Wed 12:40:24 PM 35.6403 -97.6461 178° South 172 198 3,000 -190 Level Fort Worth Center
Wed 12:40:49 PM 35.6222 -97.6453 178° South 175 201 2,800 -627 Descending Fort Worth Center
Wed 12:41:31 PM 35.5919 -97.6467 182° South 166 191 2,300 -677 Descending Fort Worth Center
Wed 12:41:51 PM 35.5803 -97.6456 176° South 149 171 2,100 -700 Descending Fort Worth Center
Wed 12:42:31 PM 35.5558 -97.6450 179° South 124 143 1,600 -677 Descending Fort Worth Center
Wed 12:42:53 PM 35.5458 -97.6447 179° South 131 151 1,400 -545 Descending Fort Worth Center

Login

Don't have an account? Register now (free) for customized features, flight alerts, and more!